• Join FlightAware (Why Join?)
  • Login
  • US Flag 
09:25PM EDT


 

Airport Tracker/Info


-or-


 

Live Flight TrackerFlight Track Log ✈ SWA558 ✈ 21-Apr-2013 ✈ KMDW - KAUS

Flight Track Log - Related Links

Times and Time Zones

All times are in EDT time to prevent confusion due to time zone crossing. See the SWA558 flight status page for this flight to view local times or setup timezone preferences in your user account.

Time Position Orientation Groundspeed Altitude Reporting Facility
EDT Latitude Longitude Course Direction KTS MPH feet Rate Location/Type
03:51PM 41.7539 -87.6983 128° Southeast 174 200 3,400  Level Chicago Center
03:52PM 41.7139 -87.6306 128° Southeast 209 241 5,900 1,200 Climbing Chicago Center
03:53PM 41.6517 -87.6633 201° Southwest 250 288 5,900 960 Level Chicago Center
03:54PM 41.6014 -87.7319 226° Southwest 257 296 7,900 1,440 Climbing Chicago Center
03:55PM 41.5531 -87.8067 229° Southwest 268 308 8,900 480 Climbing Chicago Center
03:56PM 41.5183 -87.8933 242° Southwest 268 308 8,900 960 Level Chicago Center
03:57PM 41.4747 -87.9983 241° Southwest 272 313 10,900 1,200 Climbing Chicago Center
03:58PM 41.4417 -88.0839 243° Southwest 277 319 11,500 1,200 Climbing Chicago Center
03:59PM 41.3781 -88.1522 219° Southwest 330 380 13,500 2,520 Climbing Chicago Center
04:00PM 41.2711 -88.2067 201° Southwest 348 400 16,800 2,640 Climbing Chicago Center
04:01PM 41.1828 -88.2694 208° Southwest 358 412 19,000 2,220 Climbing Chicago Center
04:02PM 41.0839 -88.3133 198° South 374 430 21,500 2,400 Climbing Chicago Center
04:03PM 40.9822 -88.3608 199° South 387 445 24,000 2,280 Climbing Chicago Center
04:04PM 40.8756 -88.4111 200° South 403 464 26,300 2,220 Climbing Chicago Center
04:05PM 40.7444 -88.4700 199° South 415 478 28,600 1,920 Climbing Chicago Center
04:07PM 40.6317 -88.5219 199° South 428 493 30,400 1,620 Climbing Chicago Center
04:08PM 40.5189 -88.5728 199° South 431 496 32,000 720 Climbing Chicago Center
04:09PM 40.3933 -88.6328 200° South 427 491 32,000  Level Chicago Center
04:10PM 40.2883 -88.7031 207° Southwest 432 497 32,000  Level Chicago Center
04:11PM 40.2058 -88.8086 224° Southwest 418 481 32,000  Level Chicago Center
04:12PM 40.1239 -88.9139 225° Southwest 413 475 32,000  Level Chicago Center
04:13PM 40.0394 -89.0206 224° Southwest 414 476 32,000  Level Kansas City Center
04:14PM 39.9544 -89.1275 224° Southwest 420 483 32,000  Level Kansas City Center
04:15PM 39.8439 -89.1869 202° Southwest 431 496 32,000 360 Level Kansas City Center
04:16PM 39.7394 -89.2617 209° Southwest 434 499 32,800 1,200 Climbing Kansas City Center
04:17PM 39.6553 -89.3686 224° Southwest 418 481 34,600 1,500 Climbing Kansas City Center
04:18PM 39.5694 -89.4733 223° Southwest 422 486 35,900 660 Climbing Kansas City Center
04:19PM 39.4686 -89.6003 224° Southwest 423 487 36,000  Climbing Kansas City Center
04:20PM 39.3842 -89.7058 224° Southwest 423 487 36,000 480 Level Kansas City Center
04:21PM 39.2994 -89.8081 223° Southwest 420 483 37,100 960 Climbing Kansas City Center
04:22PM 39.2169 -89.9108 224° Southwest 417 480 38,000 420 Climbing Kansas City Center
04:23PM 39.1325 -90.0156 224° Southwest 418 481 38,000  Level Kansas City Center
04:24PM 39.0489 -90.1183 224° Southwest 418 481 38,000  Level Kansas City Center
04:25PM 38.9467 -90.2419 223° Southwest 421 484 38,000  Level Kansas City Center
04:26PM 38.8586 -90.3497 224° Southwest 417 480 38,000  Level Kansas City Center
04:27PM 38.7711 -90.4544 223° Southwest 423 487 38,000  Level Kansas City Center
04:28PM 38.6839 -90.5542 222° Southwest 419 482 38,000  Level Kansas City Center
04:29PM 38.5986 -90.6575 223° Southwest 420 483 38,000  Level Kansas City Center
04:30PM 38.5094 -90.7647 223° Southwest 420 483 38,000  Level Kansas City Center
04:31PM 38.4242 -90.8656 223° Southwest 419 482 38,000  Level Kansas City Center
04:32PM 38.3392 -90.9678 223° Southwest 420 483 38,000  Level Kansas City Center
04:33PM 38.2547 -91.0661 222° Southwest 415 478 38,000  Level Kansas City Center
04:34PM 38.1539 -91.1850 223° Southwest 416 479 38,000  Level Kansas City Center
04:35PM 38.0675 -91.2856 223° Southwest 417 480 38,000  Level Kansas City Center
04:36PM 37.9817 -91.3875 223° Southwest 417 480 38,000  Level Kansas City Center
04:37PM 37.8939 -91.4894 223° Southwest 421 484 38,000  Level Kansas City Center
04:39PM 37.8047 -91.5914 222° Southwest 425 489 38,000  Level Kansas City Center
04:40PM 37.7158 -91.6947 223° Southwest 429 494 38,000  Level Kansas City Center
04:41PM 37.6283 -91.7964 223° Southwest 426 490 38,000  Level Kansas City Center
04:42PM 37.5250 -91.9144 222° Southwest 417 480 38,000  Level Kansas City Center
04:43PM 37.4389 -92.0139 223° Southwest 416 479 38,000  Level Kansas City Center
04:44PM 37.3531 -92.1136 223° Southwest 417 480 38,000  Level Kansas City Center
04:45PM 37.2667 -92.2108 222° Southwest 415 478 38,000  Level Kansas City Center
04:46PM 37.1803 -92.3094 222° Southwest 415 478 38,000  Level Kansas City Center
04:47PM 37.0922 -92.4089 222° Southwest 419 482 38,000  Level Kansas City Center
04:48PM 37.0036 -92.5083 222° Southwest 422 486 38,000  Level Kansas City Center
04:49PM 36.9136 -92.6092 222° Southwest 428 493 38,000  Level Kansas City Center
04:50PM 36.8072 -92.7292 222° Southwest 429 494 38,000  Level Kansas City Center
04:51PM 36.7178 -92.8289 222° Southwest 425 489 38,000  Level Memphis Center
04:52PM 36.6283 -92.9297 222° Southwest 425 489 38,000  Level Memphis Center
04:53PM 36.5408 -93.0275 222° Southwest 425 489 38,000  Level Memphis Center
04:54PM 36.4511 -93.1225 220° Southwest 425 489 38,000  Level Memphis Center
04:55PM 36.3614 -93.2200 221° Southwest 425 489 38,000  Level Memphis Center
04:56PM 36.2736 -93.3147 221° Southwest 425 489 38,000  Level Memphis Center
04:57PM 36.1858 -93.4119 222° Southwest 420 483 38,000  Level Memphis Center
04:58PM 36.1000 -93.5089 222° Southwest 425 489 38,000  Level Memphis Center
04:59PM 36.0100 -93.6056 221° Southwest 425 489 38,000  Level Memphis Center
05:00PM 35.9222 -93.6969 220° Southwest 420 483 38,000  Level Memphis Center
05:01PM 35.8425 -93.7858 222° Southwest 428 493 38,000  Level Memphis Center
05:02PM 35.7544 -93.8794 221° Southwest 428 493 38,000  Level Memphis Center
05:03PM 35.6642 -93.9753 221° Southwest 428 493 38,000  Level Memphis Center
05:04PM 35.5778 -94.0711 222° Southwest 423 487 38,000  Level Memphis Center
05:05PM 35.4875 -94.1664 221° Southwest 423 487 38,000  Level Memphis Center
05:06PM 35.3969 -94.2617 221° Southwest 423 487 38,000  Level Memphis Center
05:07PM 35.2942 -94.3408 212° Southwest 428 493 38,000  Level Memphis Center
05:08PM 35.1956 -94.4225 214° Southwest 433 498 38,000  Level Memphis Center
05:09PM 35.0953 -94.4964 211° Southwest 433 498 38,000  Level Memphis Center
05:10PM 35.0089 -94.5617 212° Southwest 432 497 38,000  Level Fort Worth Center
05:11PM 34.9106 -94.6386 213° Southwest 427 491 38,000  Level Fort Worth Center
05:12PM 34.8100 -94.7153 212° Southwest 427 491 38,000  Level Fort Worth Center
05:13PM 34.7114 -94.7889 212° Southwest 427 491 38,000  Level Fort Worth Center
05:14PM 34.6128 -94.8653 213° Southwest 422 486 38,000  Level Fort Worth Center
05:15PM 34.5161 -94.9386 212° Southwest 417 480 38,000  Level Fort Worth Center
05:16PM 34.4194 -95.0094 211° Southwest 422 486 38,000  Level Fort Worth Center
05:17PM 34.3228 -95.0800 211° Southwest 422 486 38,000  Level Fort Worth Center
05:18PM 34.2261 -95.1528 212° Southwest 422 486 38,000  Level Fort Worth Center
05:19PM 34.1314 -95.2256 212° Southwest 422 486 38,000  Level Fort Worth Center
05:20PM 34.0344 -95.2931 210° Southwest 416 479 38,000  Level Fort Worth Center
05:21PM 33.9375 -95.3656 212° Southwest 416 479 38,000  Level Fort Worth Center
05:22PM 33.8406 -95.4378 212° Southwest 416 479 38,000  Level Fort Worth Center
05:23PM 33.7458 -95.5100 212° Southwest 416 479 38,000  Level Fort Worth Center
05:24PM 33.6444 -95.5794 210° Southwest 416 479 38,000  Level Fort Worth Center
05:25PM 33.5475 -95.6514 212° Southwest 416 479 38,000  Level Fort Worth Center
05:26PM 33.4544 -95.7206 212° Southwest 416 479 38,000  Level Fort Worth Center
05:27PM 33.3553 -95.7894 210° Southwest 416 479 38,000  Level Fort Worth Center
05:28PM 33.2600 -95.8583 211° Southwest 405 466 38,000  Level Fort Worth Center
05:29PM 33.1669 -95.9269 212° Southwest 405 466 38,000  Level Fort Worth Center
05:30PM 33.0717 -95.9953 211° Southwest 405 466 38,000  Level Fort Worth Center
05:31PM 32.9847 -96.0586 211° Southwest 405 466 38,000  Level Fort Worth Center
05:32PM 32.8872 -96.1269 210° Southwest 405 466 38,000  Level Fort Worth Center
05:33PM 32.7919 -96.1975 212° Southwest 405 466 38,000  Level Fort Worth Center
05:34PM 32.6944 -96.2656 210° Southwest 410 472 38,000  Level Fort Worth Center
05:35PM 32.5969 -96.3333 210° Southwest 410 472 38,000  Level Fort Worth Center
05:36PM 32.4911 -96.4086 211° Southwest 410 472 38,000 -540 Level Fort Worth Center
05:37PM 32.3914 -96.4786 211° Southwest 410 472 37,000 -1,020 Descending Fort Worth Center
05:38PM 32.3000 -96.5458 212° Southwest 404 465 36,000 -1,020 Descending Fort Worth Center
05:39PM 32.2044 -96.6131 211° Southwest 410 472 35,000 -960 Descending Fort Worth Center
05:40PM 32.1111 -96.6800 211° Southwest 410 472 34,100 -960 Descending Fort Worth Center
05:41PM 32.0153 -96.7444 210° Southwest 410 472 33,100 -1,440 Descending Fort Worth Center
05:42PM 31.9197 -96.8161 212° Southwest 405 466 31,300 -1,920 Descending Fort Worth Center
05:43PM 31.8197 -96.8853 210° Southwest 411 473 29,300 -2,100 Descending Fort Worth Center
05:44PM 31.7219 -96.9492 209° Southwest 411 473 27,200 -1,980 Descending Fort Worth Center
05:45PM 31.6261 -97.0181 211° Southwest 406 467 25,400 -1,440 Descending Fort Worth Center
05:46PM 31.5322 -97.0819 210° Southwest 406 467 24,400 -900 Descending Fort Worth Center
05:46PM 31.4589 -97.1111 199° South 400 460 23,900 -1,020 Descending Houston Center
05:47PM 31.3542 -97.1522 199° South 396 456 22,700 -960 Descending Houston Center
05:48PM 31.2519 -97.1919 198° South 386 444 22,000 -780 Descending Houston Center
05:49PM 31.1506 -97.2319 199° South 382 440 21,100 -1,920 Descending Houston Center
05:50PM 31.0475 -97.2719 198° South 388 447 18,100 -2,520 Descending Houston Center
05:51PM 30.9478 -97.3100 198° South 390 449 16,000 -2,700 Descending Houston Center
05:53PM 30.8339 -97.3553 199° South 376 433 12,600 -2,760 Descending Houston Center
05:54PM 30.7431 -97.3889 198° South 350 403 10,300 -1,500 Descending Houston Center
05:55PM 30.6717 -97.4306 207° Southwest 295 339 9,500 -1,260 Descending Houston Center
05:56PM 30.6192 -97.4906 225° Southwest 267 307 7,700 -1,680 Descending Houston Center
05:57PM 30.5608 -97.5439 218° Southwest 266 306 6,100 -1,740 Descending Houston Center
05:58PM 30.4814 -97.5833 203° Southwest 265 305 4,200 -1,500 Descending Houston Center
05:59PM 30.4142 -97.6181 204° Southwest 262 302 3,000 -780 Descending Houston Center
06:00PM 30.3558 -97.6478 204° Southwest 240 276 2,700 -480 Descending Houston Center
06:01PM 30.3006 -97.6767 204° Southwest 221 254 2,100 -660 Descending Houston Center
06:02PM 30.2553 -97.6792 183° South 181 208 1,400 -720 Descending Houston Center